sensor_id;sensor_type;location;lat;lon;timestamp;P1;durP1;ratioP1;P2;durP2;ratioP2
41221;SDS011;26952;42.884;23.918;2023-04-30T00:00:29;10.75;;;9.95;;
41221;SDS011;26952;42.884;23.918;2023-04-30T00:02:54;11.48;;;10.52;;
41221;SDS011;26952;42.884;23.918;2023-04-30T00:05:20;11.50;;;10.77;;
41221;SDS011;26952;42.884;23.918;2023-04-30T00:07:45;10.55;;;9.80;;
41221;SDS011;26952;42.884;23.918;2023-04-30T00:10:10;10.52;;;9.82;;
41221;SDS011;26952;42.884;23.918;2023-04-30T00:12:36;10.32;;;9.52;;
41221;SDS011;26952;42.884;23.918;2023-04-30T00:15:02;10.15;;;9.45;;
41221;SDS011;26952;42.884;23.918;2023-04-30T00:17:28;7.28;;;6.60;;
41221;SDS011;26952;42.884;23.918;2023-04-30T00:19:53;6.90;;;6.38;;
41221;SDS011;26952;42.884;23.918;2023-04-30T00:22:19;7.47;;;6.88;;
41221;SDS011;26952;42.884;23.918;2023-04-30T00:24:44;6.90;;;6.10;;
41221;SDS011;26952;42.884;23.918;2023-04-30T00:27:10;6.93;;;6.32;;
41221;SDS011;26952;42.884;23.918;2023-04-30T00:29:35;6.88;;;6.18;;
41221;SDS011;26952;42.884;23.918;2023-04-30T00:32:01;8.13;;;7.43;;
41221;SDS011;26952;42.884;23.918;2023-04-30T00:34:27;7.88;;;7.28;;
41221;SDS011;26952;42.884;23.918;2023-04-30T00:36:52;9.38;;;8.55;;
41221;SDS011;26952;42.884;23.918;2023-04-30T00:39:18;9.98;;;9.27;;
41221;SDS011;26952;42.884;23.918;2023-04-30T00:41:43;8.57;;;7.85;;
41221;SDS011;26952;42.884;23.918;2023-04-30T00:44:08;9.50;;;8.60;;
41221;SDS011;26952;42.884;23.918;2023-04-30T00:46:34;8.27;;;7.55;;
41221;SDS011;26952;42.884;23.918;2023-04-30T00:48:59;8.60;;;7.93;;
41221;SDS011;26952;42.884;23.918;2023-04-30T00:51:28;9.13;;;8.07;;
41221;SDS011;26952;42.884;23.918;2023-04-30T00:53:55;9.50;;;8.70;;
41221;SDS011;26952;42.884;23.918;2023-04-30T00:56:22;11.52;;;10.52;;
41221;SDS011;26952;42.884;23.918;2023-04-30T00:58:48;11.70;;;10.70;;
41221;SDS011;26952;42.884;23.918;2023-04-30T01:01:18;10.90;;;10.10;;
41221;SDS011;26952;42.884;23.918;2023-04-30T01:03:43;10.98;;;10.07;;
41221;SDS011;26952;42.884;23.918;2023-04-30T01:06:09;10.85;;;9.95;;
41221;SDS011;26952;42.884;23.918;2023-04-30T01:08:35;11.48;;;10.57;;
41221;SDS011;26952;42.884;23.918;2023-04-30T01:13:30;11.18;;;10.45;;
41221;SDS011;26952;42.884;23.918;2023-04-30T01:16:10;11.52;;;10.63;;
41221;SDS011;26952;42.884;23.918;2023-04-30T01:18:45;12.38;;;11.57;;
41221;SDS011;26952;42.884;23.918;2023-04-30T01:21:15;14.13;;;13.10;;
41221;SDS011;26952;42.884;23.918;2023-04-30T01:29:49;13.35;;;12.43;;
41221;SDS011;26952;42.884;23.918;2023-04-30T01:32:16;16.25;;;15.25;;
41221;SDS011;26952;42.884;23.918;2023-04-30T01:34:42;17.25;;;16.23;;
41221;SDS011;26952;42.884;23.918;2023-04-30T01:37:14;18.10;;;16.90;;
41221;SDS011;26952;42.884;23.918;2023-04-30T01:42:49;18.42;;;16.92;;
41221;SDS011;26952;42.884;23.918;2023-04-30T01:53:16;16.98;;;15.68;;
41221;SDS011;26952;42.884;23.918;2023-04-30T01:56:00;14.85;;;13.70;;
41221;SDS011;26952;42.884;23.918;2023-04-30T01:58:28;14.45;;;13.52;;
41221;SDS011;26952;42.884;23.918;2023-04-30T02:00:54;15.00;;;14.00;;
41221;SDS011;26952;42.884;23.918;2023-04-30T02:03:20;13.98;;;12.98;;
41221;SDS011;26952;42.884;23.918;2023-04-30T02:05:45;14.10;;;13.10;;
41221;SDS011;26952;42.884;23.918;2023-04-30T02:08:11;11.90;;;11.15;;
41221;SDS011;26952;42.884;23.918;2023-04-30T02:10:37;11.00;;;10.30;;
41221;SDS011;26952;42.884;23.918;2023-04-30T02:13:02;10.60;;;9.63;;
41221;SDS011;26952;42.884;23.918;2023-04-30T02:15:28;10.30;;;9.48;;
41221;SDS011;26952;42.884;23.918;2023-04-30T02:17:53;10.48;;;9.68;;
41221;SDS011;26952;42.884;23.918;2023-04-30T02:20:18;9.07;;;8.38;;
41221;SDS011;26952;42.884;23.918;2023-04-30T02:22:44;8.73;;;7.80;;
41221;SDS011;26952;42.884;23.918;2023-04-30T02:25:09;10.52;;;9.73;;
41221;SDS011;26952;42.884;23.918;2023-04-30T02:27:36;12.35;;;11.40;;
41221;SDS011;26952;42.884;23.918;2023-04-30T02:30:02;10.95;;;10.05;;
41221;SDS011;26952;42.884;23.918;2023-04-30T02:32:28;10.88;;;10.10;;
41221;SDS011;26952;42.884;23.918;2023-04-30T02:34:54;12.70;;;11.90;;
41221;SDS011;26952;42.884;23.918;2023-04-30T02:37:19;14.13;;;13.25;;
41221;SDS011;26952;42.884;23.918;2023-04-30T02:39:45;13.10;;;12.15;;
41221;SDS011;26952;42.884;23.918;2023-04-30T02:42:10;12.88;;;11.68;;
41221;SDS011;26952;42.884;23.918;2023-04-30T02:44:36;10.52;;;9.80;;
41221;SDS011;26952;42.884;23.918;2023-04-30T02:47:01;8.75;;;8.20;;
41221;SDS011;26952;42.884;23.918;2023-04-30T02:49:27;8.63;;;7.90;;
41221;SDS011;26952;42.884;23.918;2023-04-30T02:51:53;8.77;;;7.90;;
41221;SDS011;26952;42.884;23.918;2023-04-30T02:54:19;9.48;;;8.80;;
41221;SDS011;26952;42.884;23.918;2023-04-30T02:56:45;9.45;;;8.73;;
41221;SDS011;26952;42.884;23.918;2023-04-30T02:59:11;8.90;;;8.20;;
41221;SDS011;26952;42.884;23.918;2023-04-30T03:01:36;10.45;;;9.45;;
41221;SDS011;26952;42.884;23.918;2023-04-30T03:04:02;9.48;;;8.57;;
41221;SDS011;26952;42.884;23.918;2023-04-30T03:06:29;9.55;;;8.65;;
41221;SDS011;26952;42.884;23.918;2023-04-30T03:08:55;10.20;;;9.30;;
41221;SDS011;26952;42.884;23.918;2023-04-30T03:11:21;9.05;;;8.38;;
41221;SDS011;26952;42.884;23.918;2023-04-30T03:13:46;9.00;;;8.35;;
41221;SDS011;26952;42.884;23.918;2023-04-30T03:16:15;9.05;;;8.35;;
41221;SDS011;26952;42.884;23.918;2023-04-30T03:18:41;9.50;;;8.75;;
41221;SDS011;26952;42.884;23.918;2023-04-30T03:21:06;8.70;;;7.95;;
41221;SDS011;26952;42.884;23.918;2023-04-30T03:23:31;8.27;;;7.38;;
41221;SDS011;26952;42.884;23.918;2023-04-30T03:25:57;7.22;;;6.68;;
41221;SDS011;26952;42.884;23.918;2023-04-30T03:28:22;7.25;;;6.75;;
41221;SDS011;26952;42.884;23.918;2023-04-30T03:30:47;7.80;;;6.95;;
41221;SDS011;26952;42.884;23.918;2023-04-30T03:33:13;9.50;;;8.80;;
41221;SDS011;26952;42.884;23.918;2023-04-30T03:35:38;9.63;;;8.60;;
41221;SDS011;26952;42.884;23.918;2023-04-30T03:38:03;8.77;;;8.18;;
41221;SDS011;26952;42.884;23.918;2023-04-30T03:40:29;11.85;;;10.98;;
41221;SDS011;26952;42.884;23.918;2023-04-30T03:42:54;12.07;;;11.23;;
41221;SDS011;26952;42.884;23.918;2023-04-30T03:45:20;11.95;;;11.07;;
41221;SDS011;26952;42.884;23.918;2023-04-30T03:47:45;14.85;;;13.82;;
41221;SDS011;26952;42.884;23.918;2023-04-30T03:50:12;20.83;;;19.52;;
41221;SDS011;26952;42.884;23.918;2023-04-30T03:52:38;11.38;;;10.27;;
41221;SDS011;26952;42.884;23.918;2023-04-30T03:55:03;9.73;;;9.07;;
41221;SDS011;26952;42.884;23.918;2023-04-30T03:57:29;15.23;;;14.13;;
41221;SDS011;26952;42.884;23.918;2023-04-30T03:59:55;8.65;;;7.95;;
41221;SDS011;26952;42.884;23.918;2023-04-30T04:02:21;20.38;;;19.27;;
41221;SDS011;26952;42.884;23.918;2023-04-30T04:04:47;15.32;;;14.52;;
41221;SDS011;26952;42.884;23.918;2023-04-30T04:07:13;16.08;;;15.05;;
41221;SDS011;26952;42.884;23.918;2023-04-30T04:09:39;14.48;;;13.77;;
41221;SDS011;26952;42.884;23.918;2023-04-30T04:12:04;13.68;;;12.82;;
41221;SDS011;26952;42.884;23.918;2023-04-30T04:14:30;26.67;;;25.35;;
41221;SDS011;26952;42.884;23.918;2023-04-30T04:16:55;30.80;;;29.08;;
41221;SDS011;26952;42.884;23.918;2023-04-30T04:19:22;31.45;;;29.85;;
41221;SDS011;26952;42.884;23.918;2023-04-30T04:21:47;29.73;;;28.27;;
41221;SDS011;26952;42.884;23.918;2023-04-30T04:24:13;36.97;;;35.17;;
41221;SDS011;26952;42.884;23.918;2023-04-30T04:26:38;30.15;;;28.52;;
41221;SDS011;26952;42.884;23.918;2023-04-30T04:29:04;32.00;;;30.42;;
41221;SDS011;26952;42.884;23.918;2023-04-30T04:31:29;28.00;;;26.58;;
41221;SDS011;26952;42.884;23.918;2023-04-30T04:33:58;15.75;;;14.70;;
41221;SDS011;26952;42.884;23.918;2023-04-30T04:36:27;14.95;;;14.07;;
41221;SDS011;26952;42.884;23.918;2023-04-30T04:38:54;18.15;;;17.05;;
41221;SDS011;26952;42.884;23.918;2023-04-30T04:41:26;13.80;;;13.10;;
41221;SDS011;26952;42.884;23.918;2023-04-30T04:43:58;18.40;;;17.40;;
41221;SDS011;26952;42.884;23.918;2023-04-30T04:46:24;22.38;;;21.17;;
41221;SDS011;26952;42.884;23.918;2023-04-30T04:48:50;22.85;;;21.52;;
41221;SDS011;26952;42.884;23.918;2023-04-30T04:51:18;31.27;;;29.58;;
41221;SDS011;26952;42.884;23.918;2023-04-30T04:53:43;33.55;;;31.77;;
41221;SDS011;26952;42.884;23.918;2023-04-30T04:56:09;20.73;;;19.42;;
41221;SDS011;26952;42.884;23.918;2023-04-30T04:58:35;12.43;;;11.52;;
41221;SDS011;26952;42.884;23.918;2023-04-30T05:01:00;11.57;;;10.93;;
41221;SDS011;26952;42.884;23.918;2023-04-30T05:03:26;10.52;;;9.93;;
41221;SDS011;26952;42.884;23.918;2023-04-30T05:05:52;10.38;;;9.82;;
41221;SDS011;26952;42.884;23.918;2023-04-30T05:08:18;10.65;;;10.05;;
41221;SDS011;26952;42.884;23.918;2023-04-30T05:10:43;13.48;;;12.75;;
41221;SDS011;26952;42.884;23.918;2023-04-30T05:13:08;16.70;;;15.73;;
41221;SDS011;26952;42.884;23.918;2023-04-30T05:15:34;22.60;;;21.40;;
41221;SDS011;26952;42.884;23.918;2023-04-30T05:17:59;23.92;;;22.58;;
41221;SDS011;26952;42.884;23.918;2023-04-30T05:20:25;28.73;;;26.75;;
41221;SDS011;26952;42.884;23.918;2023-04-30T05:22:50;24.02;;;22.73;;
41221;SDS011;26952;42.884;23.918;2023-04-30T05:25:16;24.48;;;22.80;;
41221;SDS011;26952;42.884;23.918;2023-04-30T05:27:41;31.20;;;29.45;;
41221;SDS011;26952;42.884;23.918;2023-04-30T05:30:07;38.25;;;35.97;;
41221;SDS011;26952;42.884;23.918;2023-04-30T05:32:33;26.15;;;24.55;;
41221;SDS011;26952;42.884;23.918;2023-04-30T05:34:59;26.63;;;24.85;;
41221;SDS011;26952;42.884;23.918;2023-04-30T05:37:24;26.88;;;25.20;;
41221;SDS011;26952;42.884;23.918;2023-04-30T05:39:50;52.80;;;50.00;;
41221;SDS011;26952;42.884;23.918;2023-04-30T05:42:17;60.50;;;57.08;;
41221;SDS011;26952;42.884;23.918;2023-04-30T05:44:43;51.90;;;48.92;;
41221;SDS011;26952;42.884;23.918;2023-04-30T05:47:08;47.70;;;44.85;;
41221;SDS011;26952;42.884;23.918;2023-04-30T05:49:34;43.28;;;40.97;;
41221;SDS011;26952;42.884;23.918;2023-04-30T05:51:59;39.92;;;37.88;;
41221;SDS011;26952;42.884;23.918;2023-04-30T05:54:27;44.17;;;41.65;;
41221;SDS011;26952;42.884;23.918;2023-04-30T05:56:53;44.10;;;41.60;;
41221;SDS011;26952;42.884;23.918;2023-04-30T05:59:18;47.22;;;44.70;;
41221;SDS011;26952;42.884;23.918;2023-04-30T06:01:43;39.17;;;37.08;;
41221;SDS011;26952;42.884;23.918;2023-04-30T06:04:09;33.45;;;31.65;;
41221;SDS011;26952;42.884;23.918;2023-04-30T06:06:35;34.47;;;32.55;;
41221;SDS011;26952;42.884;23.918;2023-04-30T06:09:01;36.33;;;34.00;;
41221;SDS011;26952;42.884;23.918;2023-04-30T06:11:26;33.88;;;31.88;;
41221;SDS011;26952;42.884;23.918;2023-04-30T06:13:52;42.28;;;39.88;;
41221;SDS011;26952;42.884;23.918;2023-04-30T06:16:17;26.90;;;25.20;;
41221;SDS011;26952;42.884;23.918;2023-04-30T06:18:43;21.88;;;20.48;;
41221;SDS011;26952;42.884;23.918;2023-04-30T06:21:09;16.75;;;15.65;;
41221;SDS011;26952;42.884;23.918;2023-04-30T06:23:35;16.30;;;14.98;;
41221;SDS011;26952;42.884;23.918;2023-04-30T06:26:01;14.43;;;13.32;;
41221;SDS011;26952;42.884;23.918;2023-04-30T06:28:27;17.77;;;16.48;;
41221;SDS011;26952;42.884;23.918;2023-04-30T06:30:52;20.80;;;19.45;;
41221;SDS011;26952;42.884;23.918;2023-04-30T06:33:19;29.83;;;28.08;;
41221;SDS011;26952;42.884;23.918;2023-04-30T06:35:45;31.92;;;30.23;;
41221;SDS011;26952;42.884;23.918;2023-04-30T06:38:11;32.88;;;31.10;;
41221;SDS011;26952;42.884;23.918;2023-04-30T06:40:37;35.47;;;33.45;;
41221;SDS011;26952;42.884;23.918;2023-04-30T06:43:03;32.53;;;30.70;;
41221;SDS011;26952;42.884;23.918;2023-04-30T06:45:28;21.33;;;19.90;;
41221;SDS011;26952;42.884;23.918;2023-04-30T06:47:53;20.95;;;19.52;;
41221;SDS011;26952;42.884;23.918;2023-04-30T06:50:19;18.13;;;17.02;;
41221;SDS011;26952;42.884;23.918;2023-04-30T06:52:45;19.40;;;18.17;;
41221;SDS011;26952;42.884;23.918;2023-04-30T06:55:11;19.25;;;17.98;;
41221;SDS011;26952;42.884;23.918;2023-04-30T06:57:36;17.83;;;16.63;;
41221;SDS011;26952;42.884;23.918;2023-04-30T07:00:04;30.52;;;28.23;;
41221;SDS011;26952;42.884;23.918;2023-04-30T07:02:30;27.75;;;25.95;;
41221;SDS011;26952;42.884;23.918;2023-04-30T07:04:56;36.22;;;34.15;;
41221;SDS011;26952;42.884;23.918;2023-04-30T07:07:22;29.38;;;27.58;;
41221;SDS011;26952;42.884;23.918;2023-04-30T07:09:47;27.92;;;25.52;;
41221;SDS011;26952;42.884;23.918;2023-04-30T07:12:13;25.83;;;24.05;;
41221;SDS011;26952;42.884;23.918;2023-04-30T07:14:38;21.88;;;20.42;;
41221;SDS011;26952;42.884;23.918;2023-04-30T07:17:03;28.15;;;26.35;;
41221;SDS011;26952;42.884;23.918;2023-04-30T07:19:29;23.20;;;21.63;;
41221;SDS011;26952;42.884;23.918;2023-04-30T07:21:54;29.35;;;26.77;;
41221;SDS011;26952;42.884;23.918;2023-04-30T07:24:20;50.08;;;45.08;;
41221;SDS011;26952;42.884;23.918;2023-04-30T07:26:45;52.72;;;47.97;;
41221;SDS011;26952;42.884;23.918;2023-04-30T07:29:10;53.35;;;49.00;;
41221;SDS011;26952;42.884;23.918;2023-04-30T07:31:36;67.85;;;63.17;;
41221;SDS011;26952;42.884;23.918;2023-04-30T07:34:02;82.60;;;77.45;;
41221;SDS011;26952;42.884;23.918;2023-04-30T07:36:27;77.03;;;71.78;;
41221;SDS011;26952;42.884;23.918;2023-04-30T07:38:52;72.60;;;67.95;;
41221;SDS011;26952;42.884;23.918;2023-04-30T07:41:18;67.07;;;62.38;;
41221;SDS011;26952;42.884;23.918;2023-04-30T07:43:43;58.92;;;54.50;;
41221;SDS011;26952;42.884;23.918;2023-04-30T07:46:09;57.33;;;53.30;;
41221;SDS011;26952;42.884;23.918;2023-04-30T07:48:34;53.00;;;49.13;;
41221;SDS011;26952;42.884;23.918;2023-04-30T07:50:59;55.72;;;52.00;;
41221;SDS011;26952;42.884;23.918;2023-04-30T07:53:25;56.33;;;52.33;;
41221;SDS011;26952;42.884;23.918;2023-04-30T07:55:51;56.33;;;52.35;;
41221;SDS011;26952;42.884;23.918;2023-04-30T07:58:16;59.80;;;56.08;;
41221;SDS011;26952;42.884;23.918;2023-04-30T08:00:42;61.65;;;57.30;;
41221;SDS011;26952;42.884;23.918;2023-04-30T08:03:07;65.18;;;60.45;;
41221;SDS011;26952;42.884;23.918;2023-04-30T08:05:32;70.03;;;65.68;;
41221;SDS011;26952;42.884;23.918;2023-04-30T08:07:58;76.75;;;72.07;;
41221;SDS011;26952;42.884;23.918;2023-04-30T08:10:23;72.05;;;67.70;;
41221;SDS011;26952;42.884;23.918;2023-04-30T08:12:50;53.08;;;49.58;;
41221;SDS011;26952;42.884;23.918;2023-04-30T08:15:16;51.88;;;48.80;;
41221;SDS011;26952;42.884;23.918;2023-04-30T08:17:45;30.48;;;28.42;;
41221;SDS011;26952;42.884;23.918;2023-04-30T08:20:12;22.70;;;21.30;;
41221;SDS011;26952;42.884;23.918;2023-04-30T08:22:38;20.67;;;19.52;;
41221;SDS011;26952;42.884;23.918;2023-04-30T08:25:03;32.72;;;30.92;;
41221;SDS011;26952;42.884;23.918;2023-04-30T08:27:29;38.40;;;36.03;;
41221;SDS011;26952;42.884;23.918;2023-04-30T08:29:56;34.92;;;32.45;;
41221;SDS011;26952;42.884;23.918;2023-04-30T08:32:21;27.58;;;25.42;;
41221;SDS011;26952;42.884;23.918;2023-04-30T08:34:46;24.25;;;22.70;;
41221;SDS011;26952;42.884;23.918;2023-04-30T08:37:12;23.88;;;22.67;;
41221;SDS011;26952;42.884;23.918;2023-04-30T08:39:37;20.95;;;19.77;;
41221;SDS011;26952;42.884;23.918;2023-04-30T08:42:03;28.90;;;27.25;;
41221;SDS011;26952;42.884;23.918;2023-04-30T08:44:33;36.90;;;34.85;;
41221;SDS011;26952;42.884;23.918;2023-04-30T08:47:00;39.42;;;37.30;;
41221;SDS011;26952;42.884;23.918;2023-04-30T08:49:26;43.33;;;41.10;;
41221;SDS011;26952;42.884;23.918;2023-04-30T08:51:52;49.58;;;47.13;;
41221;SDS011;26952;42.884;23.918;2023-04-30T08:54:18;44.60;;;42.30;;
41221;SDS011;26952;42.884;23.918;2023-04-30T08:56:44;46.95;;;44.53;;
41221;SDS011;26952;42.884;23.918;2023-04-30T08:59:11;43.47;;;41.08;;
41221;SDS011;26952;42.884;23.918;2023-04-30T09:01:36;43.22;;;40.92;;
41221;SDS011;26952;42.884;23.918;2023-04-30T09:04:02;48.60;;;46.00;;
41221;SDS011;26952;42.884;23.918;2023-04-30T09:06:28;54.95;;;52.17;;
41221;SDS011;26952;42.884;23.918;2023-04-30T09:08:55;45.90;;;43.58;;
41221;SDS011;26952;42.884;23.918;2023-04-30T09:11:25;39.03;;;36.88;;
41221;SDS011;26952;42.884;23.918;2023-04-30T09:13:53;24.67;;;23.38;;
41221;SDS011;26952;42.884;23.918;2023-04-30T09:16:21;23.88;;;22.67;;
41221;SDS011;26952;42.884;23.918;2023-04-30T09:18:47;26.83;;;25.23;;
41221;SDS011;26952;42.884;23.918;2023-04-30T09:21:13;29.13;;;27.40;;
41221;SDS011;26952;42.884;23.918;2023-04-30T09:23:55;25.60;;;24.20;;
41221;SDS011;26952;42.884;23.918;2023-04-30T09:26:25;25.20;;;23.90;;
41221;SDS011;26952;42.884;23.918;2023-04-30T09:28:55;29.52;;;27.98;;
41221;SDS011;26952;42.884;23.918;2023-04-30T09:31:21;32.00;;;30.40;;
41221;SDS011;26952;42.884;23.918;2023-04-30T09:33:47;26.15;;;24.75;;
41221;SDS011;26952;42.884;23.918;2023-04-30T09:36:12;38.65;;;36.55;;
41221;SDS011;26952;42.884;23.918;2023-04-30T09:38:37;31.80;;;30.10;;
41221;SDS011;26952;42.884;23.918;2023-04-30T09:41:03;26.15;;;24.85;;
41221;SDS011;26952;42.884;23.918;2023-04-30T09:43:29;30.73;;;29.23;;
41221;SDS011;26952;42.884;23.918;2023-04-30T09:45:56;21.25;;;20.02;;
41221;SDS011;26952;42.884;23.918;2023-04-30T09:48:23;22.83;;;21.35;;
41221;SDS011;26952;42.884;23.918;2023-04-30T09:50:52;34.13;;;32.33;;
41221;SDS011;26952;42.884;23.918;2023-04-30T09:53:17;47.00;;;44.67;;
41221;SDS011;26952;42.884;23.918;2023-04-30T09:55:48;55.08;;;51.63;;
41221;SDS011;26952;42.884;23.918;2023-04-30T09:58:15;36.80;;;34.95;;
41221;SDS011;26952;42.884;23.918;2023-04-30T10:00:42;38.03;;;36.17;;
41221;SDS011;26952;42.884;23.918;2023-04-30T10:03:10;38.13;;;36.17;;
41221;SDS011;26952;42.884;23.918;2023-04-30T10:05:40;32.55;;;30.83;;
41221;SDS011;26952;42.884;23.918;2023-04-30T10:08:22;39.42;;;37.28;;
41221;SDS011;26952;42.884;23.918;2023-04-30T10:10:54;38.53;;;36.38;;
41221;SDS011;26952;42.884;23.918;2023-04-30T10:13:24;41.55;;;39.15;;
41221;SDS011;26952;42.884;23.918;2023-04-30T10:15:56;33.47;;;31.60;;
41221;SDS011;26952;42.884;23.918;2023-04-30T10:18:33;31.73;;;29.88;;
41221;SDS011;26952;42.884;23.918;2023-04-30T10:21:02;37.53;;;34.13;;
41221;SDS011;26952;42.884;23.918;2023-04-30T10:23:34;31.60;;;28.75;;
41221;SDS011;26952;42.884;23.918;2023-04-30T10:26:01;17.90;;;16.80;;
41221;SDS011;26952;42.884;23.918;2023-04-30T10:28:27;19.77;;;18.77;;
41221;SDS011;26952;42.884;23.918;2023-04-30T10:30:55;28.80;;;27.35;;
41221;SDS011;26952;42.884;23.918;2023-04-30T10:36:00;23.15;;;21.77;;
41221;SDS011;26952;42.884;23.918;2023-04-30T10:38:32;26.02;;;24.20;;
41221;SDS011;26952;42.884;23.918;2023-04-30T10:40:58;33.70;;;32.00;;
41221;SDS011;26952;42.884;23.918;2023-04-30T10:43:25;34.42;;;32.72;;
41221;SDS011;26952;42.884;23.918;2023-04-30T10:45:53;34.95;;;33.20;;
41221;SDS011;26952;42.884;23.918;2023-04-30T10:48:22;26.15;;;24.73;;
41221;SDS011;26952;42.884;23.918;2023-04-30T10:50:54;25.25;;;24.00;;
41221;SDS011;26952;42.884;23.918;2023-04-30T10:53:20;24.80;;;23.40;;
41221;SDS011;26952;42.884;23.918;2023-04-30T10:58:34;18.75;;;17.83;;
41221;SDS011;26952;42.884;23.918;2023-04-30T11:01:11;17.67;;;16.48;;
41221;SDS011;26952;42.884;23.918;2023-04-30T11:03:42;19.42;;;18.10;;
41221;SDS011;26952;42.884;23.918;2023-04-30T11:09:38;23.05;;;21.85;;
41221;SDS011;26952;42.884;23.918;2023-04-30T11:12:09;48.05;;;45.47;;
41221;SDS011;26952;42.884;23.918;2023-04-30T11:14:40;48.80;;;46.22;;
41221;SDS011;26952;42.884;23.918;2023-04-30T11:17:08;44.35;;;42.15;;
41221;SDS011;26952;42.884;23.918;2023-04-30T11:19:34;41.00;;;39.05;;
41221;SDS011;26952;42.884;23.918;2023-04-30T11:27:25;29.02;;;27.65;;
41221;SDS011;26952;42.884;23.918;2023-04-30T11:29:52;32.70;;;31.00;;
41221;SDS011;26952;42.884;23.918;2023-04-30T11:32:19;32.00;;;30.33;;
41221;SDS011;26952;42.884;23.918;2023-04-30T11:34:46;36.67;;;34.72;;
41221;SDS011;26952;42.884;23.918;2023-04-30T11:37:14;33.67;;;31.92;;
41221;SDS011;26952;42.884;23.918;2023-04-30T11:39:43;38.72;;;36.72;;
41221;SDS011;26952;42.884;23.918;2023-04-30T11:42:09;33.65;;;31.95;;
41221;SDS011;26952;42.884;23.918;2023-04-30T11:44:39;33.42;;;31.67;;
41221;SDS011;26952;42.884;23.918;2023-04-30T11:47:05;29.50;;;28.00;;
41221;SDS011;26952;42.884;23.918;2023-04-30T11:49:30;30.10;;;28.63;;
41221;SDS011;26952;42.884;23.918;2023-04-30T11:51:56;25.92;;;24.58;;
41221;SDS011;26952;42.884;23.918;2023-04-30T11:54:21;28.88;;;27.38;;
41221;SDS011;26952;42.884;23.918;2023-04-30T11:56:47;31.08;;;29.48;;
41221;SDS011;26952;42.884;23.918;2023-04-30T11:59:13;35.67;;;33.92;;
41221;SDS011;26952;42.884;23.918;2023-04-30T12:01:40;33.85;;;32.00;;
41221;SDS011;26952;42.884;23.918;2023-04-30T12:04:06;30.92;;;29.42;;
41221;SDS011;26952;42.884;23.918;2023-04-30T12:06:32;27.38;;;25.77;;
41221;SDS011;26952;42.884;23.918;2023-04-30T12:08:59;29.55;;;28.10;;
41221;SDS011;26952;42.884;23.918;2023-04-30T12:11:36;27.05;;;25.60;;
41221;SDS011;26952;42.884;23.918;2023-04-30T12:14:03;26.65;;;25.30;;
41221;SDS011;26952;42.884;23.918;2023-04-30T12:16:41;30.35;;;28.73;;
41221;SDS011;26952;42.884;23.918;2023-04-30T12:19:09;29.48;;;28.02;;
41221;SDS011;26952;42.884;23.918;2023-04-30T12:21:38;32.45;;;30.92;;
41221;SDS011;26952;42.884;23.918;2023-04-30T12:24:06;26.80;;;25.40;;
41221;SDS011;26952;42.884;23.918;2023-04-30T12:26:39;32.03;;;30.40;;
41221;SDS011;26952;42.884;23.918;2023-04-30T12:29:09;27.45;;;25.50;;
41221;SDS011;26952;42.884;23.918;2023-04-30T12:31:36;55.72;;;52.65;;
41221;SDS011;26952;42.884;23.918;2023-04-30T12:34:03;73.88;;;69.88;;
41221;SDS011;26952;42.884;23.918;2023-04-30T12:41:46;61.42;;;57.60;;
41221;SDS011;26952;42.884;23.918;2023-04-30T12:44:22;50.20;;;47.30;;
41221;SDS011;26952;42.884;23.918;2023-04-30T12:46:50;33.92;;;31.90;;
41221;SDS011;26952;42.884;23.918;2023-04-30T12:49:21;65.45;;;61.97;;
41221;SDS011;26952;42.884;23.918;2023-04-30T12:51:57;84.57;;;80.15;;
41221;SDS011;26952;42.884;23.918;2023-04-30T12:54:43;79.77;;;75.73;;
41221;SDS011;26952;42.884;23.918;2023-04-30T12:57:09;89.95;;;85.53;;
41221;SDS011;26952;42.884;23.918;2023-04-30T12:59:44;105.55;;;100.15;;
41221;SDS011;26952;42.884;23.918;2023-04-30T13:02:22;111.90;;;106.10;;
41221;SDS011;26952;42.884;23.918;2023-04-30T13:04:49;89.68;;;84.70;;
41221;SDS011;26952;42.884;23.918;2023-04-30T13:07:15;84.18;;;79.28;;
41221;SDS011;26952;42.884;23.918;2023-04-30T13:09:41;93.65;;;88.57;;
41221;SDS011;26952;42.884;23.918;2023-04-30T13:12:06;103.90;;;98.13;;
41221;SDS011;26952;42.884;23.918;2023-04-30T13:14:32;110.75;;;104.65;;
41221;SDS011;26952;42.884;23.918;2023-04-30T13:16:58;112.10;;;105.90;;
41221;SDS011;26952;42.884;23.918;2023-04-30T13:19:23;124.00;;;117.10;;
41221;SDS011;26952;42.884;23.918;2023-04-30T13:21:49;118.15;;;111.88;;
41221;SDS011;26952;42.884;23.918;2023-04-30T13:24:15;117.60;;;111.35;;
41221;SDS011;26952;42.884;23.918;2023-04-30T13:26:41;105.40;;;100.03;;
41221;SDS011;26952;42.884;23.918;2023-04-30T13:29:07;109.20;;;103.40;;
41221;SDS011;26952;42.884;23.918;2023-04-30T13:31:32;112.55;;;106.70;;
41221;SDS011;26952;42.884;23.918;2023-04-30T13:33:57;107.53;;;101.90;;
41221;SDS011;26952;42.884;23.918;2023-04-30T13:36:23;108.35;;;102.43;;
41221;SDS011;26952;42.884;23.918;2023-04-30T13:38:48;114.35;;;108.40;;
41221;SDS011;26952;42.884;23.918;2023-04-30T13:41:14;113.35;;;107.35;;
41221;SDS011;26952;42.884;23.918;2023-04-30T13:43:39;103.97;;;98.03;;
41221;SDS011;26952;42.884;23.918;2023-04-30T13:46:07;103.03;;;97.65;;
41221;SDS011;26952;42.884;23.918;2023-04-30T13:48:32;112.68;;;106.68;;
41221;SDS011;26952;42.884;23.918;2023-04-30T13:50:59;78.28;;;73.78;;
41221;SDS011;26952;42.884;23.918;2023-04-30T13:53:25;48.47;;;45.70;;
41221;SDS011;26952;42.884;23.918;2023-04-30T13:55:51;41.55;;;39.20;;
41221;SDS011;26952;42.884;23.918;2023-04-30T13:58:16;37.85;;;35.75;;
41221;SDS011;26952;42.884;23.918;2023-04-30T14:00:42;43.25;;;41.05;;
41221;SDS011;26952;42.884;23.918;2023-04-30T14:03:08;42.72;;;40.33;;
41221;SDS011;26952;42.884;23.918;2023-04-30T14:05:35;43.58;;;41.33;;
41221;SDS011;26952;42.884;23.918;2023-04-30T14:08:01;52.90;;;50.30;;
41221;SDS011;26952;42.884;23.918;2023-04-30T14:10:27;45.78;;;43.33;;
41221;SDS011;26952;42.884;23.918;2023-04-30T14:12:52;43.47;;;41.17;;
41221;SDS011;26952;42.884;23.918;2023-04-30T14:15:18;51.22;;;48.67;;
41221;SDS011;26952;42.884;23.918;2023-04-30T14:17:43;43.53;;;41.22;;
41221;SDS011;26952;42.884;23.918;2023-04-30T14:20:09;76.20;;;72.38;;
41221;SDS011;26952;42.884;23.918;2023-04-30T14:22:35;55.53;;;52.63;;
41221;SDS011;26952;42.884;23.918;2023-04-30T14:25:02;45.30;;;43.03;;
41221;SDS011;26952;42.884;23.918;2023-04-30T14:27:28;62.35;;;59.10;;
41221;SDS011;26952;42.884;23.918;2023-04-30T14:29:54;55.42;;;52.30;;
41221;SDS011;26952;42.884;23.918;2023-04-30T14:32:20;39.25;;;37.03;;
41221;SDS011;26952;42.884;23.918;2023-04-30T14:34:45;75.45;;;71.25;;
41221;SDS011;26952;42.884;23.918;2023-04-30T14:37:11;115.53;;;109.00;;
41221;SDS011;26952;42.884;23.918;2023-04-30T14:39:37;115.38;;;109.20;;
41221;SDS011;26952;42.884;23.918;2023-04-30T14:42:02;108.68;;;102.97;;
41221;SDS011;26952;42.884;23.918;2023-04-30T14:44:28;88.25;;;83.75;;
41221;SDS011;26952;42.884;23.918;2023-04-30T14:46:54;78.50;;;74.30;;